sensor_id;sensor_type;location;lat;lon;timestamp;pressure;altitude;pressure_sealevel;temperature;humidity
61573;BME280;47465;43.094;12.434;2023-11-18T00:02:26;98955.63;;;9.18;88.48
61573;BME280;47465;43.094;12.434;2023-11-18T00:04:56;98779.56;;;8.29;88.54
61573;BME280;47465;43.094;12.434;2023-11-18T00:07:31;98848.50;;;8.78;88.14
61573;BME280;47465;43.094;12.434;2023-11-18T00:10:04;98918.69;;;9.07;91.05
61573;BME280;47465;43.094;12.434;2023-11-18T00:12:36;98794.75;;;8.19;90.33
61573;BME280;47465;43.094;12.434;2023-11-18T00:15:10;98811.22;;;8.36;89.95
61573;BME280;47465;43.094;12.434;2023-11-18T00:18:21;98969.84;;;9.15;89.25
61573;BME280;47465;43.094;12.434;2023-11-18T00:20:57;98819.16;;;7.84;90.86
61573;BME280;47465;43.094;12.434;2023-11-18T00:23:28;98971.25;;;8.83;90.87
61573;BME280;47465;43.094;12.434;2023-11-18T00:26:05;98800.16;;;7.55;93.29
61573;BME280;47465;43.094;12.434;2023-11-18T00:28:41;98790.44;;;7.57;94.50
61573;BME280;47465;43.094;12.434;2023-11-18T00:31:36;98808.88;;;7.62;94.17
61573;BME280;47465;43.094;12.434;2023-11-18T00:34:08;98939.41;;;8.29;95.03
61573;BME280;47465;43.094;12.434;2023-11-18T00:36:48;98787.16;;;7.40;95.95
61573;BME280;47465;43.094;12.434;2023-11-18T00:39:24;98845.66;;;7.80;95.03
61573;BME280;47465;43.094;12.434;2023-11-18T00:42:20;98848.38;;;7.76;95.57
61573;BME280;47465;43.094;12.434;2023-11-18T00:45:08;98835.19;;;7.74;96.15
61573;BME280;47465;43.094;12.434;2023-11-18T00:47:37;98822.91;;;7.69;95.41
61573;BME280;47465;43.094;12.434;2023-11-18T00:50:16;98861.50;;;7.85;96.90
61573;BME280;47465;43.094;12.434;2023-11-18T00:56:02;98894.31;;;8.32;98.27
61573;BME280;47465;43.094;12.434;2023-11-18T00:58:40;99000.06;;;9.07;97.61
61573;BME280;47465;43.094;12.434;2023-11-18T01:01:17;98957.91;;;8.90;97.27
61573;BME280;47465;43.094;12.434;2023-11-18T01:03:53;98893.22;;;8.46;97.53
61573;BME280;47465;43.094;12.434;2023-11-18T01:09:14;98828.53;;;8.05;97.81
61573;BME280;47465;43.094;12.434;2023-11-18T01:11:51;98851.03;;;8.32;96.03
61573;BME280;47465;43.094;12.434;2023-11-18T01:14:45;98979.63;;;9.12;95.58
61573;BME280;47465;43.094;12.434;2023-11-18T01:17:20;98930.69;;;8.78;96.22
61573;BME280;47465;43.094;12.434;2023-11-18T01:23:25;98978.03;;;9.01;96.01
61573;BME280;47465;43.094;12.434;2023-11-18T01:26:04;98871.03;;;7.97;99.49
61573;BME280;47465;43.094;12.434;2023-11-18T01:28:48;98833.09;;;7.93;98.11
61573;BME280;47465;43.094;12.434;2023-11-18T01:31:36;98979.06;;;8.91;97.59
61573;BME280;47465;43.094;12.434;2023-11-18T01:37:19;99031.88;;;9.07;97.25
61573;BME280;47465;43.094;12.434;2023-11-18T01:40:08;98877.88;;;8.09;96.50
61573;BME280;47465;43.094;12.434;2023-11-18T01:43:04;98878.09;;;7.95;97.01
61573;BME280;47465;43.094;12.434;2023-11-18T01:45:47;99053.31;;;8.93;98.81
61573;BME280;47465;43.094;12.434;2023-11-18T01:48:27;98881.81;;;7.83;100.00
61573;BME280;47465;43.094;12.434;2023-11-18T01:51:19;98970.28;;;8.32;98.96
61573;BME280;47465;43.094;12.434;2023-11-18T01:54:13;98986.06;;;8.41;97.83
61573;BME280;47465;43.094;12.434;2023-11-18T01:56:53;99032.69;;;8.54;99.00
61573;BME280;47465;43.094;12.434;2023-11-18T01:59:25;98930.28;;;7.87;99.76
61573;BME280;47465;43.094;12.434;2023-11-18T02:01:58;98990.81;;;8.16;100.00
61573;BME280;47465;43.094;12.434;2023-11-18T02:04:31;99038.13;;;8.45;100.00
61573;BME280;47465;43.094;12.434;2023-11-18T02:06:57;98897.09;;;7.61;100.00
61573;BME280;47465;43.094;12.434;2023-11-18T02:09:33;98916.31;;;7.75;100.00
61573;BME280;47465;43.094;12.434;2023-11-18T02:12:15;99060.81;;;8.66;99.88
61573;BME280;47465;43.094;12.434;2023-11-18T02:14:50;98910.09;;;7.78;99.70
61573;BME280;47465;43.094;12.434;2023-11-18T02:17:24;98908.59;;;7.58;100.00
61573;BME280;47465;43.094;12.434;2023-11-18T02:19:56;99019.03;;;8.17;100.00
61573;BME280;47465;43.094;12.434;2023-11-18T02:22:23;99049.81;;;8.27;100.00
61573;BME280;47465;43.094;12.434;2023-11-18T02:24:49;98897.22;;;7.53;100.00
61573;BME280;47465;43.094;12.434;2023-11-18T02:27:24;98905.22;;;7.47;100.00
61573;BME280;47465;43.094;12.434;2023-11-18T02:29:59;98898.13;;;7.49;100.00
61573;BME280;47465;43.094;12.434;2023-11-18T02:32:33;98948.94;;;7.77;100.00
61573;BME280;47465;43.094;12.434;2023-11-18T02:35:08;98969.13;;;7.88;100.00
61573;BME280;47465;43.094;12.434;2023-11-18T02:37:37;98917.31;;;7.67;100.00
61573;BME280;47465;43.094;12.434;2023-11-18T02:40:06;99005.81;;;8.15;100.00
61573;BME280;47465;43.094;12.434;2023-11-18T02:42:41;98908.78;;;7.46;100.00
61573;BME280;47465;43.094;12.434;2023-11-18T02:45:20;98932.66;;;7.37;100.00
61573;BME280;47465;43.094;12.434;2023-11-18T02:47:50;98917.16;;;7.08;100.00
61573;BME280;47465;43.094;12.434;2023-11-18T02:50:24;99064.38;;;7.92;100.00
61573;BME280;47465;43.094;12.434;2023-11-18T02:52:55;98955.13;;;7.01;100.00
61573;BME280;47465;43.094;12.434;2023-11-18T02:55:24;99001.56;;;7.28;100.00
61573;BME280;47465;43.094;12.434;2023-11-18T02:57:54;99068.41;;;7.44;100.00
61573;BME280;47465;43.094;12.434;2023-11-18T03:00:23;98942.34;;;6.50;100.00
61573;BME280;47465;43.094;12.434;2023-11-18T03:03:00;98936.97;;;6.62;100.00
61573;BME280;47465;43.094;12.434;2023-11-18T03:05:31;99007.28;;;6.83;100.00
61573;BME280;47465;43.094;12.434;2023-11-18T03:07:57;98996.56;;;6.94;100.00
61573;BME280;47465;43.094;12.434;2023-11-18T03:10:29;98988.63;;;6.98;100.00
61573;BME280;47465;43.094;12.434;2023-11-18T03:13:05;98977.19;;;6.95;100.00
61573;BME280;47465;43.094;12.434;2023-11-18T03:15:36;98928.25;;;6.48;100.00
61573;BME280;47465;43.094;12.434;2023-11-18T03:18:05;98965.03;;;6.74;100.00
61573;BME280;47465;43.094;12.434;2023-11-18T03:20:36;98951.81;;;6.75;100.00
61573;BME280;47465;43.094;12.434;2023-11-18T03:23:12;98945.53;;;6.90;100.00
61573;BME280;47465;43.094;12.434;2023-11-18T03:25:49;99043.72;;;7.45;100.00
61573;BME280;47465;43.094;12.434;2023-11-18T03:28:18;99141.97;;;8.00;100.00
61573;BME280;47465;43.094;12.434;2023-11-18T03:30:47;98977.13;;;7.03;100.00
61573;BME280;47465;43.094;12.434;2023-11-18T03:33:19;98960.47;;;6.93;100.00
61573;BME280;47465;43.094;12.434;2023-11-18T03:35:51;98964.03;;;6.92;100.00
61573;BME280;47465;43.094;12.434;2023-11-18T03:38:30;98968.34;;;6.96;100.00
61573;BME280;47465;43.094;12.434;2023-11-18T03:41:02;99120.84;;;7.96;100.00
61573;BME280;47465;43.094;12.434;2023-11-18T03:43:30;98981.56;;;6.97;100.00
61573;BME280;47465;43.094;12.434;2023-11-18T03:45:59;99166.75;;;7.95;100.00
61573;BME280;47465;43.094;12.434;2023-11-18T03:48:28;99169.56;;;7.78;100.00
61573;BME280;47465;43.094;12.434;2023-11-18T03:51:00;98985.63;;;6.33;100.00
61573;BME280;47465;43.094;12.434;2023-11-18T03:53:29;98988.13;;;6.53;100.00
61573;BME280;47465;43.094;12.434;2023-11-18T03:55:59;98975.94;;;6.31;100.00
61573;BME280;47465;43.094;12.434;2023-11-18T03:58:30;99104.84;;;7.12;100.00
61573;BME280;47465;43.094;12.434;2023-11-18T04:01:01;99181.50;;;7.20;100.00
61573;BME280;47465;43.094;12.434;2023-11-18T04:03:37;99005.09;;;6.12;100.00
61573;BME280;47465;43.094;12.434;2023-11-18T04:06:09;99000.72;;;6.08;100.00
61573;BME280;47465;43.094;12.434;2023-11-18T04:08:38;99095.53;;;6.56;100.00
61573;BME280;47465;43.094;12.434;2023-11-18T04:11:15;99015.53;;;6.34;100.00
61573;BME280;47465;43.094;12.434;2023-11-18T04:13:44;99126.19;;;6.85;100.00
61573;BME280;47465;43.094;12.434;2023-11-18T04:16:11;99009.44;;;6.21;100.00
61573;BME280;47465;43.094;12.434;2023-11-18T04:18:45;99099.81;;;6.77;100.00
61573;BME280;47465;43.094;12.434;2023-11-18T04:21:16;99019.09;;;6.28;100.00
61573;BME280;47465;43.094;12.434;2023-11-18T04:23:47;99209.66;;;7.27;100.00
61573;BME280;47465;43.094;12.434;2023-11-18T04:26:19;99100.63;;;6.90;100.00
61573;BME280;47465;43.094;12.434;2023-11-18T04:28:55;99012.00;;;6.38;100.00
61573;BME280;47465;43.094;12.434;2023-11-18T04:31:23;99212.91;;;7.65;100.00
61573;BME280;47465;43.094;12.434;2023-11-18T04:33:50;99027.69;;;6.61;100.00
61573;BME280;47465;43.094;12.434;2023-11-18T04:36:19;99053.22;;;6.59;100.00
61573;BME280;47465;43.094;12.434;2023-11-18T04:39:05;99044.44;;;6.57;100.00
61573;BME280;47465;43.094;12.434;2023-11-18T04:41:42;99069.06;;;6.65;100.00
61573;BME280;47465;43.094;12.434;2023-11-18T04:44:16;99095.41;;;6.79;100.00
61573;BME280;47465;43.094;12.434;2023-11-18T04:46:42;99182.44;;;7.08;100.00
61573;BME280;47465;43.094;12.434;2023-11-18T04:49:28;99051.69;;;6.20;100.00
61573;BME280;47465;43.094;12.434;2023-11-18T04:51:59;99012.25;;;5.80;100.00
61573;BME280;47465;43.094;12.434;2023-11-18T04:54:27;99212.47;;;6.98;100.00
61573;BME280;47465;43.094;12.434;2023-11-18T04:56:56;99049.13;;;6.12;100.00
61573;BME280;47465;43.094;12.434;2023-11-18T04:59:25;99243.25;;;7.13;100.00
61573;BME280;47465;43.094;12.434;2023-11-18T05:01:54;99089.63;;;6.02;100.00
61573;BME280;47465;43.094;12.434;2023-11-18T05:04:25;99203.81;;;6.65;100.00
61573;BME280;47465;43.094;12.434;2023-11-18T05:06:59;99105.50;;;5.77;100.00
61573;BME280;47465;43.094;12.434;2023-11-18T05:09:30;99070.31;;;5.76;100.00
61573;BME280;47465;43.094;12.434;2023-11-18T05:12:09;99118.63;;;6.12;100.00
61573;BME280;47465;43.094;12.434;2023-11-18T05:14:48;99116.00;;;6.08;100.00
61573;BME280;47465;43.094;12.434;2023-11-18T05:17:19;99130.91;;;6.20;100.00
61573;BME280;47465;43.094;12.434;2023-11-18T05:19:51;99214.41;;;6.68;100.00
61573;BME280;47465;43.094;12.434;2023-11-18T05:22:25;99058.81;;;6.02;100.00
61573;BME280;47465;43.094;12.434;2023-11-18T05:25:02;99191.25;;;7.10;100.00
61573;BME280;47465;43.094;12.434;2023-11-18T05:27:41;99185.91;;;7.19;100.00
61573;BME280;47465;43.094;12.434;2023-11-18T05:30:15;99219.22;;;7.45;100.00
61573;BME280;47465;43.094;12.434;2023-11-18T05:32:56;99127.81;;;7.04;100.00
61573;BME280;47465;43.094;12.434;2023-11-18T05:35:29;99069.81;;;6.83;100.00
61573;BME280;47465;43.094;12.434;2023-11-18T05:38:03;99051.34;;;6.79;100.00
61573;BME280;47465;43.094;12.434;2023-11-18T05:40:35;99190.00;;;7.60;100.00
61573;BME280;47465;43.094;12.434;2023-11-18T05:43:05;99068.91;;;6.90;100.00
61573;BME280;47465;43.094;12.434;2023-11-18T05:45:53;99120.75;;;7.09;100.00
61573;BME280;47465;43.094;12.434;2023-11-18T05:49:20;99155.75;;;7.42;100.00
61573;BME280;47465;43.094;12.434;2023-11-18T05:51:54;99152.13;;;7.52;100.00
61573;BME280;47465;43.094;12.434;2023-11-18T05:54:31;99267.25;;;8.09;100.00
61573;BME280;47465;43.094;12.434;2023-11-18T05:57:11;99083.75;;;7.05;100.00
61573;BME280;47465;43.094;12.434;2023-11-18T05:59:51;99248.84;;;7.96;100.00
61573;BME280;47465;43.094;12.434;2023-11-18T06:02:28;99114.69;;;6.96;100.00
61573;BME280;47465;43.094;12.434;2023-11-18T06:05:00;99230.66;;;7.52;100.00
61573;BME280;47465;43.094;12.434;2023-11-18T06:07:58;99258.72;;;7.70;100.00
61573;BME280;47465;43.094;12.434;2023-11-18T06:10:27;99266.69;;;7.70;100.00
61573;BME280;47465;43.094;12.434;2023-11-18T06:12:58;99186.06;;;6.95;100.00
61573;BME280;47465;43.094;12.434;2023-11-18T06:15:45;99106.28;;;6.19;100.00
61573;BME280;47465;43.094;12.434;2023-11-18T06:18:33;99109.88;;;5.95;100.00
61573;BME280;47465;43.094;12.434;2023-11-18T06:21:24;99147.66;;;6.17;100.00
61573;BME280;47465;43.094;12.434;2023-11-18T06:27:15;99105.47;;;5.92;100.00
61573;BME280;47465;43.094;12.434;2023-11-18T06:39:09;99133.66;;;5.75;100.00
61573;BME280;47465;43.094;12.434;2023-11-18T06:41:38;99128.34;;;5.84;100.00
61573;BME280;47465;43.094;12.434;2023-11-18T06:44:38;99124.84;;;5.84;100.00
61573;BME280;47465;43.094;12.434;2023-11-18T06:47:22;99294.50;;;6.76;100.00
61573;BME280;47465;43.094;12.434;2023-11-18T06:50:06;99160.00;;;6.03;100.00
61573;BME280;47465;43.094;12.434;2023-11-18T06:52:40;99155.59;;;6.19;100.00
61573;BME280;47465;43.094;12.434;2023-11-18T06:55:27;99170.56;;;6.18;100.00
61573;BME280;47465;43.094;12.434;2023-11-18T06:58:09;99147.69;;;6.06;100.00
61573;BME280;47465;43.094;12.434;2023-11-18T07:07:43;99177.47;;;6.53;100.00
61573;BME280;47465;43.094;12.434;2023-11-18T07:10:43;99256.44;;;7.17;100.00
61573;BME280;47465;43.094;12.434;2023-11-18T07:13:26;99186.94;;;6.94;100.00
61573;BME280;47465;43.094;12.434;2023-11-18T07:15:53;99186.22;;;6.61;100.00
61573;BME280;47465;43.094;12.434;2023-11-18T07:18:28;99185.25;;;6.81;100.00
61573;BME280;47465;43.094;12.434;2023-11-18T07:23:47;99201.66;;;7.35;100.00
61573;BME280;47465;43.094;12.434;2023-11-18T07:26:38;99213.81;;;7.62;100.00
61573;BME280;47465;43.094;12.434;2023-11-18T07:29:07;99196.44;;;7.26;100.00
61573;BME280;47465;43.094;12.434;2023-11-18T07:31:42;99201.53;;;7.53;100.00
61573;BME280;47465;43.094;12.434;2023-11-18T07:34:34;99198.66;;;7.79;100.00
61573;BME280;47465;43.094;12.434;2023-11-18T07:37:05;99214.25;;;8.09;100.00
61573;BME280;47465;43.094;12.434;2023-11-18T07:39:43;99226.00;;;7.83;100.00
61573;BME280;47465;43.094;12.434;2023-11-18T07:42:23;99215.59;;;7.61;100.00
61573;BME280;47465;43.094;12.434;2023-11-18T07:45:15;99214.50;;;7.87;100.00
61573;BME280;47465;43.094;12.434;2023-11-18T07:47:56;99231.94;;;8.11;100.00
61573;BME280;47465;43.094;12.434;2023-11-18T07:57:39;99386.91;;;9.45;100.00
61573;BME280;47465;43.094;12.434;2023-11-18T08:00:06;99356.97;;;9.35;100.00
61573;BME280;47465;43.094;12.434;2023-11-18T08:02:39;99246.19;;;8.81;100.00
61573;BME280;47465;43.094;12.434;2023-11-18T08:05:21;99241.53;;;9.00;96.62
61573;BME280;47465;43.094;12.434;2023-11-18T08:07:56;99214.31;;;8.88;96.51
61573;BME280;47465;43.094;12.434;2023-11-18T08:10:30;99225.84;;;8.82;98.19
61573;BME280;47465;43.094;12.434;2023-11-18T08:13:04;99240.63;;;9.01;98.00
61573;BME280;47465;43.094;12.434;2023-11-18T08:19:40;99237.59;;;9.29;95.07
61573;BME280;47465;43.094;12.434;2023-11-18T08:24:00;99324.19;;;9.98;94.56
61573;BME280;47465;43.094;12.434;2023-11-18T08:25:19;99332.88;;;10.10;92.41
61573;BME280;47465;43.094;12.434;2023-11-18T08:27:53;99242.34;;;9.66;91.72
61573;BME280;47465;43.094;12.434;2023-11-18T08:33:47;99244.41;;;10.01;88.61
61573;BME280;47465;43.094;12.434;2023-11-18T08:36:23;99402.06;;;11.10;87.70
61573;BME280;47465;43.094;12.434;2023-11-18T08:38:54;99279.22;;;10.40;87.11
61573;BME280;47465;43.094;12.434;2023-11-18T08:41:25;99245.50;;;10.42;85.23
61573;BME280;47465;43.094;12.434;2023-11-18T08:43:52;99233.97;;;10.43;83.86
61573;BME280;47465;43.094;12.434;2023-11-18T08:46:23;99333.75;;;11.09;83.66
61573;BME280;47465;43.094;12.434;2023-11-18T08:48:59;99200.25;;;10.45;82.57
61573;BME280;47465;43.094;12.434;2023-11-18T08:51:35;99212.44;;;10.56;81.51
61573;BME280;47465;43.094;12.434;2023-11-18T08:54:09;99282.34;;;11.07;81.80
61573;BME280;47465;43.094;12.434;2023-11-18T08:57:15;99235.78;;;10.86;81.10
61573;BME280;47465;43.094;12.434;2023-11-18T09:00:17;99362.56;;;11.75;79.35
61573;BME280;47465;43.094;12.434;2023-11-18T09:03:05;99257.22;;;10.77;80.14
61573;BME280;47465;43.094;12.434;2023-11-18T09:05:35;99321.72;;;11.34;80.73
61573;BME280;47465;43.094;12.434;2023-11-18T09:08:04;99267.56;;;10.93;78.54
61573;BME280;47465;43.094;12.434;2023-11-18T09:10:38;99280.16;;;11.26;78.79
61573;BME280;47465;43.094;12.434;2023-11-18T09:13:04;99239.75;;;11.07;76.43
61573;BME280;47465;43.094;12.434;2023-11-18T09:22:14;99278.34;;;11.69;75.07
61573;BME280;47465;43.094;12.434;2023-11-18T09:24:46;99302.13;;;11.77;74.38
61573;BME280;47465;43.094;12.434;2023-11-18T09:27:12;99289.53;;;11.83;75.28
61573;BME280;47465;43.094;12.434;2023-11-18T09:29:44;99264.94;;;11.72;74.60
61573;BME280;47465;43.094;12.434;2023-11-18T09:32:13;99340.03;;;12.27;74.27
61573;BME280;47465;43.094;12.434;2023-11-18T09:35:00;99377.22;;;12.69;72.45
61573;BME280;47465;43.094;12.434;2023-11-18T09:38:00;99290.84;;;12.39;73.34
61573;BME280;47465;43.094;12.434;2023-11-18T09:40:52;99299.34;;;12.53;72.60
61573;BME280;47465;43.094;12.434;2023-11-18T09:43:40;99356.78;;;13.01;71.29
61573;BME280;47465;43.094;12.434;2023-11-18T09:46:50;99392.97;;;13.45;71.20
61573;BME280;47465;43.094;12.434;2023-11-18T09:49:16;99287.53;;;12.94;70.18
61573;BME280;47465;43.094;12.434;2023-11-18T09:51:46;99378.34;;;13.57;69.25
61573;BME280;47465;43.094;12.434;2023-11-18T09:54:54;99368.19;;;13.70;68.83
61573;BME280;47465;43.094;12.434;2023-11-18T09:57:32;99349.56;;;13.67;69.94
61573;BME280;47465;43.094;12.434;2023-11-18T10:00:07;99324.72;;;13.63;69.34
61573;BME280;47465;43.094;12.434;2023-11-18T10:02:54;99409.28;;;14.25;69.61
61573;BME280;47465;43.094;12.434;2023-11-18T10:05:23;99267.28;;;13.48;69.24
61573;BME280;47465;43.094;12.434;2023-11-18T10:07:54;99253.28;;;13.40;68.71
61573;BME280;47465;43.094;12.434;2023-11-18T10:10:25;99318.72;;;13.85;69.40
61573;BME280;47465;43.094;12.434;2023-11-18T10:13:02;99404.47;;;14.35;69.94
61573;BME280;47465;43.094;12.434;2023-11-18T10:15:34;99269.22;;;13.45;70.05
61573;BME280;47465;43.094;12.434;2023-11-18T10:18:07;99240.28;;;13.29;71.53
61573;BME280;47465;43.094;12.434;2023-11-18T10:20:56;99260.19;;;13.49;71.89
61573;BME280;47465;43.094;12.434;2023-11-18T10:23:27;99250.00;;;13.32;70.38
61573;BME280;47465;43.094;12.434;2023-11-18T10:25:56;99404.09;;;14.19;71.57
61573;BME280;47465;43.094;12.434;2023-11-18T10:28:32;99307.56;;;13.70;72.38
61573;BME280;47465;43.094;12.434;2023-11-18T10:31:07;99279.78;;;13.48;72.70
61573;BME280;47465;43.094;12.434;2023-11-18T10:33:42;99240.22;;;13.31;72.47
61573;BME280;47465;43.094;12.434;2023-11-18T10:36:18;99247.22;;;13.35;74.21
61573;BME280;47465;43.094;12.434;2023-11-18T10:38:57;99344.34;;;13.92;73.16
61573;BME280;47465;43.094;12.434;2023-11-18T10:41:39;99317.72;;;13.59;72.61
61573;BME280;47465;43.094;12.434;2023-11-18T10:44:12;99358.84;;;13.83;74.40
61573;BME280;47465;43.094;12.434;2023-11-18T10:47:02;99345.75;;;13.75;73.16
61573;BME280;47465;43.094;12.434;2023-11-18T10:49:58;99314.22;;;13.57;72.42
61573;BME280;47465;43.094;12.434;2023-11-18T11:04:11;99343.66;;;13.85;73.03
61573;BME280;47465;43.094;12.434;2023-11-18T11:14:02;99313.16;;;13.92;68.97
61573;BME280;47465;43.094;12.434;2023-11-18T13:02:19;99305.91;;;15.01;50.81
61573;BME280;47465;43.094;12.434;2023-11-18T13:05:01;99178.44;;;14.22;51.49
61573;BME280;47465;43.094;12.434;2023-11-18T13:08:12;99183.78;;;14.22;50.45
61573;BME280;47465;43.094;12.434;2023-11-18T13:10:54;99243.41;;;14.50;50.99
61573;BME280;47465;43.094;12.434;2023-11-18T13:13:43;99216.28;;;14.36;50.57
61573;BME280;47465;43.094;12.434;2023-11-18T13:16:21;99363.31;;;15.43;47.39
61573;BME280;47465;43.094;12.434;2023-11-18T13:19:06;99320.22;;;15.24;47.60
61573;BME280;47465;43.094;12.434;2023-11-18T13:21:36;99296.75;;;15.07;47.83
61573;BME280;47465;43.094;12.434;2023-11-18T13:24:24;99241.97;;;14.67;47.68
61573;BME280;47465;43.094;12.434;2023-11-18T13:26:57;99226.25;;;14.57;48.20
61573;BME280;47465;43.094;12.434;2023-11-18T13:29:45;99274.47;;;14.81;46.85
61573;BME280;47465;43.094;12.434;2023-11-18T13:38:19;99364.63;;;15.31;47.06
61573;BME280;47465;43.094;12.434;2023-11-18T13:41:10;99201.28;;;14.32;47.92
61573;BME280;47465;43.094;12.434;2023-11-18T13:43:46;99327.50;;;15.20;48.29
61573;BME280;47465;43.094;12.434;2023-11-18T13:46:19;99351.81;;;15.39;48.00
61573;BME280;47465;43.094;12.434;2023-11-18T13:48:58;99224.88;;;14.71;48.09
61573;BME280;47465;43.094;12.434;2023-11-18T13:54:42;99205.53;;;14.63;47.91
61573;BME280;47465;43.094;12.434;2023-11-18T13:57:13;99333.06;;;15.39;48.40
61573;BME280;47465;43.094;12.434;2023-11-18T13:59:48;99270.53;;;14.91;48.69
61573;BME280;47465;43.094;12.434;2023-11-18T14:02:19;99306.03;;;15.22;48.20
61573;BME280;47465;43.094;12.434;2023-11-18T14:04:55;99195.44;;;14.71;48.53
61573;BME280;47465;43.094;12.434;2023-11-18T14:07:54;99327.50;;;15.44;48.13
61573;BME280;47465;43.094;12.434;2023-11-18T14:10:27;99241.88;;;14.93;48.85
61573;BME280;47465;43.094;12.434;2023-11-18T14:13:07;99177.66;;;14.43;49.57
61573;BME280;47465;43.094;12.434;2023-11-18T14:23:03;99195.47;;;14.19;49.94
61573;BME280;47465;43.094;12.434;2023-11-18T14:25:34;99335.19;;;15.06;49.75
61573;BME280;47465;43.094;12.434;2023-11-18T14:28:05;99175.47;;;14.04;50.80
61573;BME280;47465;43.094;12.434;2023-11-18T14:30:35;99188.72;;;14.07;52.30
61573;BME280;47465;43.094;12.434;2023-11-18T14:33:01;99179.38;;;13.94;51.58
61573;BME280;47465;43.094;12.434;2023-11-18T14:35:30;99173.47;;;13.86;52.37
61573;BME280;47465;43.094;12.434;2023-11-18T14:38:01;99171.81;;;13.82;53.12
61573;BME280;47465;43.094;12.434;2023-11-18T14:40:28;99248.00;;;14.22;51.94
61573;BME280;47465;43.094;12.434;2023-11-18T14:42:58;99190.19;;;13.91;51.54
61573;BME280;47465;43.094;12.434;2023-11-18T14:45:30;99175.19;;;13.87;52.19
61573;BME280;47465;43.094;12.434;2023-11-18T14:48:18;99155.94;;;13.77;50.53
61573;BME280;47465;43.094;12.434;2023-11-18T14:50:44;99225.25;;;14.08;50.91
61573;BME280;47465;43.094;12.434;2023-11-18T14:53:16;99321.59;;;14.62;51.77
61573;BME280;47465;43.094;12.434;2023-11-18T14:55:44;99230.50;;;13.85;52.01
61573;BME280;47465;43.094;12.434;2023-11-18T14:58:15;99334.59;;;14.44;51.94
61573;BME280;47465;43.094;12.434;2023-11-18T15:00:54;99188.41;;;13.65;52.80
61573;BME280;47465;43.094;12.434;2023-11-18T15:03:33;99294.63;;;14.13;51.34
61573;BME280;47465;43.094;12.434;2023-11-18T15:05:59;99190.81;;;13.44;51.69
61573;BME280;47465;43.094;12.434;2023-11-18T15:15:31;99326.38;;;13.38;63.87
61573;BME280;47465;43.094;12.434;2023-11-18T15:18:04;99319.06;;;13.13;66.23
61573;BME280;47465;43.094;12.434;2023-11-18T15:25:31;99214.81;;;11.88;69.23
61573;BME280;47465;43.094;12.434;2023-11-18T15:28:21;99236.31;;;11.80;71.66
61573;BME280;47465;43.094;12.434;2023-11-18T15:31:26;99358.53;;;12.35;72.25
61573;BME280;47465;43.094;12.434;2023-11-18T15:34:07;99324.72;;;11.59;71.17
61573;BME280;47465;43.094;12.434;2023-11-18T15:40:05;99228.19;;;10.66;70.92
61573;BME280;47465;43.094;12.434;2023-11-18T15:42:37;99220.25;;;10.65;70.62
61573;BME280;47465;43.094;12.434;2023-11-18T15:45:20;99209.22;;;10.40;70.49
61573;BME280;47465;43.094;12.434;2023-11-18T15:48:03;99342.59;;;11.10;73.14
61573;BME280;47465;43.094;12.434;2023-11-18T15:50:41;99204.25;;;10.20;73.26
61573;BME280;47465;43.094;12.434;2023-11-18T15:53:18;99253.63;;;10.35;72.40
61573;BME280;47465;43.094;12.434;2023-11-18T15:55:51;99204.56;;;10.03;72.43
61573;BME280;47465;43.094;12.434;2023-11-18T15:58:26;99264.38;;;10.25;72.05
61573;BME280;47465;43.094;12.434;2023-11-18T16:00:54;99373.41;;;10.77;73.46
61573;BME280;47465;43.094;12.434;2023-11-18T16:03:39;99358.69;;;10.57;72.96
61573;BME280;47465;43.094;12.434;2023-11-18T16:09:58;99380.16;;;10.95;70.56
61573;BME280;47465;43.094;12.434;2023-11-18T16:17:47;99353.66;;;10.40;71.15
61573;BME280;47465;43.094;12.434;2023-11-18T16:41:32;99276.72;;;9.75;72.46
61573;BME280;47465;43.094;12.434;2023-11-18T16:44:01;99240.94;;;9.43;71.29
61573;BME280;47465;43.094;12.434;2023-11-18T16:46:37;99252.53;;;9.38;72.14
61573;BME280;47465;43.094;12.434;2023-11-18T16:49:23;99243.47;;;9.50;72.75
61573;BME280;47465;43.094;12.434;2023-11-18T16:51:56;99245.31;;;9.46;71.67
61573;BME280;47465;43.094;12.434;2023-11-18T16:58:23;99255.41;;;9.21;72.66
61573;BME280;47465;43.094;12.434;2023-11-18T17:00:57;99278.34;;;9.25;72.41
61573;BME280;47465;43.094;12.434;2023-11-18T17:03:24;99379.31;;;9.84;74.92
61573;BME280;47465;43.094;12.434;2023-11-18T17:06:00;99246.13;;;8.89;75.17
61573;BME280;47465;43.094;12.434;2023-11-18T17:08:32;99435.72;;;10.03;74.39
61573;BME280;47465;43.094;12.434;2023-11-18T17:11:01;99355.53;;;9.73;72.61
61573;BME280;47465;43.094;12.434;2023-11-18T17:13:50;99418.59;;;10.24;70.51
61573;BME280;47465;43.094;12.434;2023-11-18T17:16:24;99275.94;;;9.69;69.61
61573;BME280;47465;43.094;12.434;2023-11-18T17:18:57;99260.25;;;9.53;71.69
61573;BME280;47465;43.094;12.434;2023-11-18T17:21:25;99265.31;;;9.69;70.47
61573;BME280;47465;43.094;12.434;2023-11-18T17:27:15;99376.81;;;10.32;70.89
61573;BME280;47465;43.094;12.434;2023-11-18T17:30:13;99262.91;;;9.53;72.19
61573;BME280;47465;43.094;12.434;2023-11-18T17:36:42;99360.53;;;9.96;73.53
61573;BME280;47465;43.094;12.434;2023-11-18T17:40:44;99397.72;;;9.98;74.15
61573;BME280;47465;43.094;12.434;2023-11-18T17:43:11;99428.31;;;10.23;73.29
61573;BME280;47465;43.094;12.434;2023-11-18T17:46:05;99398.50;;;10.03;73.85
61573;BME280;47465;43.094;12.434;2023-11-18T17:49:11;99373.28;;;9.71;76.31
61573;BME280;47465;43.094;12.434;2023-11-18T17:58:47;99337.59;;;9.25;79.83
61573;BME280;47465;43.094;12.434;2023-11-18T18:01:30;99352.47;;;9.40;79.94
61573;BME280;47465;43.094;12.434;2023-11-18T18:04:10;99370.16;;;9.41;81.97
61573;BME280;47465;43.094;12.434;2023-11-18T18:07:01;99310.47;;;9.02;81.60